Time;durP1;ratioP1;P1;durP2;ratioP2;P2;SDS_P1;SDS_P2;PMS_P1;PMS_P2;Temp;Humidity;BMP_temperature;BMP_pressure;BME280_temperature;BME280_humidity;BME280_pressure;Samples;Min_cycle;Max_cycle;Signal;HPM_P1;HPM_P2
2023/10/07 00:02:33;;;;;;;9.88;4.80;;;8.10;99.90;;;;;;6183102;28;20053;-78
2023/10/07 00:05:39;;;;;;;10.15;4.57;;;8.10;99.90;;;;;;6182200;28;20047;-78
2023/10/07 00:08:41;;;;;;;10.10;5.03;;;8.10;99.90;;;;;;6198614;28;20042;-80
2023/10/07 00:11:46;;;;;;;12.00;5.45;;;8.10;99.90;;;;;;6205350;28;20042;-80
2023/10/07 00:14:49;;;;;;;9.13;4.72;;;8.10;99.90;;;;;;6204714;28;20050;-79
2023/10/07 00:17:51;;;;;;;8.82;4.93;;;8.10;99.90;;;;;;6206374;28;20046;-80
2023/10/07 00:20:55;;;;;;;8.30;4.85;;;8.10;99.90;;;;;;6205712;28;20436;-79
2023/10/07 00:23:57;;;;;;;10.55;4.97;;;8.00;99.90;;;;;;6206230;28;20042;-81
2023/10/07 00:27:00;;;;;;;10.77;5.00;;;8.00;99.90;;;;;;6205608;28;20043;-80
2023/10/07 00:30:12;;;;;;;7.50;4.45;;;8.00;99.90;;;;;;6206865;28;20174;-78
2023/10/07 00:33:14;;;;;;;8.52;5.97;;;7.90;99.90;;;;;;6205393;28;20042;-78
2023/10/07 00:36:33;;;;;;;8.27;4.88;;;7.90;99.90;;;;;;6182930;28;20042;-79
2023/10/07 00:39:38;;;;;;;12.45;5.03;;;7.90;99.90;;;;;;6184108;28;20065;-79
2023/10/07 00:42:41;;;;;;;7.30;4.47;;;8.00;99.90;;;;;;6181891;28;20039;-79
2023/10/07 00:45:44;;;;;;;5.90;5.25;;;8.10;99.90;;;;;;6187413;28;20096;-78
2023/10/07 00:48:47;;;;;;;10.52;5.63;;;8.10;99.90;;;;;;6182369;28;20638;-79
2023/10/07 00:51:53;;;;;;;9.32;5.60;;;8.10;99.90;;;;;;6181443;28;20051;-79
2023/10/07 00:55:00;;;;;;;7.05;4.60;;;8.10;99.90;;;;;;6182689;28;20062;-77
2023/10/07 00:58:08;;;;;;;11.43;6.07;;;8.10;99.90;;;;;;6183392;28;20038;-79
2023/10/07 01:01:12;;;;;;;10.98;5.05;;;8.30;99.90;;;;;;6181097;28;20057;-80
2023/10/07 01:04:16;;;;;;;13.13;5.75;;;8.40;99.90;;;;;;6180862;28;20094;-79
2023/10/07 01:07:19;;;;;;;13.23;5.35;;;8.50;99.90;;;;;;6180920;28;20424;-79
2023/10/07 01:10:31;;;;;;;8.27;5.00;;;8.60;99.90;;;;;;6180966;28;20393;-79
2023/10/07 01:13:32;;;;;;;7.10;5.28;;;8.70;99.90;;;;;;6181177;28;20039;-79
2023/10/07 01:16:41;;;;;;;11.57;6.32;;;8.80;99.90;;;;;;6180681;28;20147;-80
2023/10/07 01:19:52;;;;;;;12.23;4.75;;;8.90;99.90;;;;;;6180594;28;20416;-79
2023/10/07 01:23:04;;;;;;;7.20;5.07;;;9.00;99.90;;;;;;6180618;28;20051;-79
2023/10/07 01:26:15;;;;;;;10.32;4.85;;;9.00;99.90;;;;;;6181154;28;20043;-79
2023/10/07 01:29:16;;;;;;;11.60;5.63;;;9.10;99.90;;;;;;6186560;28;20062;-80
2023/10/07 01:32:19;;;;;;;6.00;4.38;;;9.20;99.90;;;;;;6186555;28;20084;-80
2023/10/07 01:35:26;;;;;;;8.77;5.15;;;9.30;99.90;;;;;;6186709;28;20047;-79
2023/10/07 01:38:32;;;;;;;13.23;5.68;;;9.30;99.90;;;;;;6187025;28;20047;-79
2023/10/07 01:41:38;;;;;;;10.90;4.90;;;9.30;99.90;;;;;;6186881;28;20217;-79
2023/10/07 01:44:41;;;;;;;14.60;5.70;;;9.30;99.90;;;;;;6186921;28;20078;-80
2023/10/07 01:47:42;;;;;;;11.68;5.20;;;9.30;99.90;;;;;;6187334;28;20066;-80
2023/10/07 01:50:46;;;;;;;9.10;6.32;;;9.30;99.90;;;;;;6186742;28;20057;-80
2023/10/07 01:53:49;;;;;;;9.95;4.68;;;9.30;99.90;;;;;;6186972;28;20054;-79
2023/10/07 01:56:52;;;;;;;9.57;5.72;;;9.20;99.90;;;;;;6186030;28;20049;-80
2023/10/07 01:59:57;;;;;;;8.00;5.32;;;9.20;99.90;;;;;;6186018;28;20468;-79
2023/10/07 02:03:01;;;;;;;6.88;5.05;;;9.20;99.90;;;;;;6185053;28;20446;-79
2023/10/07 02:06:05;;;;;;;10.38;5.63;;;9.20;99.90;;;;;;6201811;28;20156;-81
2023/10/07 02:09:08;;;;;;;13.13;6.00;;;9.30;99.90;;;;;;6208542;28;20422;-77
2023/10/07 02:12:11;;;;;;;10.40;5.00;;;9.30;99.90;;;;;;6207415;28;20403;-80
2023/10/07 02:15:19;;;;;;;11.15;6.00;;;9.30;99.90;;;;;;6206299;28;20414;-79
2023/10/07 02:18:21;;;;;;;14.18;7.07;;;9.30;99.90;;;;;;6208716;28;20090;-79
2023/10/07 02:21:24;;;;;;;11.98;5.80;;;9.30;99.90;;;;;;6207572;28;20156;-81
2023/10/07 02:24:31;;;;;;;12.10;6.07;;;9.30;99.90;;;;;;6207590;28;20057;-81
2023/10/07 02:27:41;;;;;;;9.32;6.03;;;9.30;99.90;;;;;;6207456;28;20126;-79
2023/10/07 02:30:51;;;;;;;12.55;6.32;;;9.30;99.90;;;;;;6207884;28;20057;-81
2023/10/07 02:33:57;;;;;;;13.85;6.55;;;9.30;99.90;;;;;;6207875;28;20074;-78
2023/10/07 02:37:11;;;;;;;12.98;6.95;;;9.30;99.90;;;;;;6207303;28;20427;-79
2023/10/07 02:40:20;;;;;;;12.77;6.88;;;9.30;99.90;;;;;;6208216;28;20042;-79
2023/10/07 02:43:22;;;;;;;9.55;5.88;;;9.30;99.90;;;;;;6207238;28;20050;-78
2023/10/07 02:46:33;;;;;;;12.13;7.22;;;9.30;99.90;;;;;;6208138;28;20054;-79
2023/10/07 02:49:34;;;;;;;11.80;6.53;;;9.30;99.90;;;;;;6194231;28;20053;-80
2023/10/07 02:52:37;;;;;;;11.15;5.90;;;9.30;99.90;;;;;;6183181;28;20439;-80
2023/10/07 02:55:48;;;;;;;9.63;6.90;;;9.30;99.90;;;;;;6181921;28;20109;-78
2023/10/07 02:58:58;;;;;;;17.20;7.18;;;9.30;99.90;;;;;;6183577;28;20236;-79
2023/10/07 03:02:19;;;;;;;13.65;7.28;;;9.30;99.90;;;;;;6183641;28;20053;-80
2023/10/07 03:05:29;;;;;;;8.27;5.75;;;9.30;99.90;;;;;;6184866;28;20047;-78
2023/10/07 03:08:47;;;;;;;9.45;5.15;;;9.20;99.90;;;;;;6184245;28;20051;-80
2023/10/07 03:11:50;;;;;;;11.98;5.25;;;9.20;99.90;;;;;;6184205;28;20042;-80
2023/10/07 03:14:51;;;;;;;10.55;6.38;;;9.20;99.90;;;;;;6183432;28;20691;-79
2023/10/07 03:17:54;;;;;;;11.57;6.38;;;9.20;99.90;;;;;;6189607;28;20051;-81
2023/10/07 03:21:06;;;;;;;8.75;5.07;;;9.20;99.90;;;;;;6181944;28;20073;-79
2023/10/07 03:24:10;;;;;;;12.35;5.63;;;9.20;99.90;;;;;;6182058;28;20179;-78
2023/10/07 03:27:22;;;;;;;11.43;6.18;;;9.20;99.90;;;;;;6181604;28;20050;-79
2023/10/07 03:30:27;;;;;;;12.95;5.88;;;9.20;99.90;;;;;;6182452;28;20055;-79
2023/10/07 03:33:42;;;;;;;5.97;5.00;;;9.20;99.90;;;;;;6183191;28;20050;-79
2023/10/07 03:36:56;;;;;;;11.80;5.03;;;9.10;99.90;;;;;;6182142;28;20125;-77
2023/10/07 03:40:25;;;;;;;10.65;6.13;;;9.10;99.90;;;;;;6182334;28;20101;-79
2023/10/07 03:43:28;;;;;;;8.52;5.25;;;9.10;99.90;;;;;;6181777;28;20050;-79
2023/10/07 03:46:30;;;;;;;10.20;5.68;;;9.00;99.90;;;;;;6181830;28;20197;-78
2023/10/07 03:49:34;;;;;;;10.05;5.97;;;9.00;99.90;;;;;;6182267;28;20144;-80
2023/10/07 03:52:37;;;;;;;17.58;6.35;;;9.10;99.90;;;;;;6183511;28;20046;-80
2023/10/07 03:55:41;;;;;;;12.55;6.60;;;9.00;99.90;;;;;;6182634;28;20038;-78
2023/10/07 03:58:44;;;;;;;9.07;5.35;;;9.00;99.90;;;;;;6182038;28;20484;-79
2023/10/07 04:01:46;;;;;;;8.25;4.95;;;9.00;99.90;;;;;;6182303;28;20039;-78
2023/10/07 04:04:55;;;;;;;14.45;5.63;;;9.10;99.90;;;;;;6181178;28;20066;-80
2023/10/07 04:07:57;;;;;;;10.93;6.18;;;9.10;99.90;;;;;;6187964;28;20374;-79
2023/10/07 04:11:01;;;;;;;10.07;5.05;;;9.10;99.90;;;;;;6184848;28;20054;-79
2023/10/07 04:14:18;;;;;;;9.82;5.25;;;9.10;99.90;;;;;;6182274;28;20045;-79
2023/10/07 04:17:23;;;;;;;9.57;5.40;;;9.10;99.90;;;;;;6180856;28;20062;-80
2023/10/07 04:20:42;;;;;;;8.32;4.53;;;9.20;99.90;;;;;;6179937;28;20050;-79
2023/10/07 04:23:45;;;;;;;10.40;4.70;;;9.20;99.90;;;;;;6180686;28;20041;-78
2023/10/07 04:26:54;;;;;;;10.25;5.40;;;9.20;99.90;;;;;;6173332;28;20515;-79
2023/10/07 04:30:00;;;;;;;10.40;5.25;;;9.30;99.90;;;;;;6173561;28;20046;-79
2023/10/07 04:33:02;;;;;;;10.88;5.60;;;9.20;99.90;;;;;;6173313;28;20038;-79
2023/10/07 04:36:04;;;;;;;7.22;3.72;;;9.20;99.90;;;;;;6173380;28;20046;-77
2023/10/07 04:39:18;;;;;;;7.13;4.32;;;9.10;99.90;;;;;;6173811;28;20047;-77
2023/10/07 04:42:20;;;;;;;8.93;4.32;;;9.00;99.90;;;;;;6173992;28;20055;-79
2023/10/07 04:45:35;;;;;;;8.77;5.35;;;8.90;99.90;;;;;;6178150;28;20133;-78
2023/10/07 04:48:54;;;;;;;10.27;5.32;;;8.90;99.90;;;;;;6173608;28;20047;-79
2023/10/07 04:51:58;;;;;;;11.98;6.68;;;8.90;99.90;;;;;;6189957;23;20136;-78
2023/10/07 04:55:01;;;;;;;9.95;5.18;;;8.80;99.90;;;;;;6247007;28;20498;-78
2023/10/07 04:58:03;;;;;;;7.30;5.32;;;8.70;99.90;;;;;;6248130;28;20052;-78
2023/10/07 05:01:06;;;;;;;9.38;5.22;;;8.70;99.90;;;;;;6245577;28;20117;-78
2023/10/07 05:04:09;;;;;;;7.88;5.47;;;8.60;99.90;;;;;;6244899;28;20186;-78
2023/10/07 05:07:11;;;;;;;10.93;5.70;;;8.60;99.90;;;;;;6244740;28;20123;-77
2023/10/07 05:10:12;;;;;;;8.63;5.07;;;8.60;99.90;;;;;;6245501;28;20052;-78
2023/10/07 05:13:15;;;;;;;10.27;6.30;;;8.60;99.90;;;;;;6237177;28;20034;-78
2023/10/07 05:16:19;;;;;;;9.15;5.88;;;8.60;99.90;;;;;;6220535;28;20077;-79
2023/10/07 05:19:22;;;;;;;9.70;6.10;;;8.50;99.90;;;;;;6220091;28;20426;-79
2023/10/07 05:22:24;;;;;;;9.13;5.60;;;8.50;99.90;;;;;;6238314;28;20087;-78
2023/10/07 05:25:26;;;;;;;8.27;4.60;;;8.50;99.90;;;;;;6244518;28;20060;-78
2023/10/07 05:28:27;;;;;;;13.80;6.47;;;8.40;99.90;;;;;;6245537;28;20049;-78
2023/10/07 05:31:31;;;;;;;10.60;5.88;;;8.40;99.90;;;;;;6245306;28;20049;-78
2023/10/07 05:34:33;;;;;;;11.27;6.20;;;8.50;99.90;;;;;;6245046;28;20058;-77
2023/10/07 05:37:36;;;;;;;9.50;6.00;;;8.50;99.90;;;;;;6244500;28;20496;-77
2023/10/07 05:40:39;;;;;;;10.27;6.95;;;8.50;99.90;;;;;;6244870;28;20402;-77
2023/10/07 05:43:43;;;;;;;10.80;7.53;;;8.50;99.90;;;;;;6244453;28;20041;-78
2023/10/07 05:46:46;;;;;;;13.02;6.60;;;8.50;99.90;;;;;;6245133;28;20049;-78
2023/10/07 05:49:49;;;;;;;31.35;10.45;;;8.50;99.90;;;;;;6244694;28;20048;-79
2023/10/07 05:52:51;;;;;;;14.15;6.35;;;8.50;99.90;;;;;;6245436;28;20042;-78
2023/10/07 05:55:53;;;;;;;10.55;6.03;;;8.60;99.90;;;;;;6245217;28;20072;-77
2023/10/07 05:58:55;;;;;;;10.18;5.70;;;8.60;99.90;;;;;;6247084;28;20060;-78
2023/10/07 06:02:01;;;;;;;12.00;5.65;;;8.70;99.90;;;;;;6240155;28;20057;-78
2023/10/07 06:05:05;;;;;;;10.85;5.28;;;8.70;99.90;;;;;;6242712;28;20506;-78
2023/10/07 06:08:10;;;;;;;10.23;5.20;;;8.80;99.90;;;;;;6245125;28;20037;-78
2023/10/07 06:11:12;;;;;;;9.73;5.20;;;8.90;99.90;;;;;;6245355;28;20045;-79
2023/10/07 06:14:13;;;;;;;10.98;4.18;;;9.00;99.90;;;;;;6248750;28;20038;-77
2023/10/07 06:17:16;;;;;;;11.70;5.22;;;9.00;99.90;;;;;;6249313;28;20044;-79
2023/10/07 06:20:26;;;;;;;6.68;4.90;;;9.10;99.90;;;;;;6249470;28;20045;-77
2023/10/07 06:23:29;;;;;;;12.05;4.95;;;9.10;99.90;;;;;;6248803;28;20050;-77
2023/10/07 06:26:31;;;;;;;13.38;5.38;;;9.10;99.90;;;;;;6249236;28;20136;-78
2023/10/07 06:29:33;;;;;;;12.82;6.07;;;9.20;99.90;;;;;;6248553;28;20055;-77
2023/10/07 06:32:44;;;;;;;13.55;7.18;;;9.20;99.90;;;;;;6248378;28;20037;-78
2023/10/07 06:35:45;;;;;;;10.02;5.90;;;9.30;99.90;;;;;;6248090;28;20053;-78
2023/10/07 06:38:51;;;;;;;8.57;4.78;;;9.30;99.90;;;;;;6248619;28;20057;-77
2023/10/07 06:41:55;;;;;;;12.55;6.35;;;9.40;99.90;;;;;;6248349;28;20084;-78
2023/10/07 06:45:02;;;;;;;11.85;6.28;;;9.60;99.90;;;;;;6234537;28;20049;-76
2023/10/07 06:48:08;;;;;;;9.63;5.88;;;9.70;99.90;;;;;;6223315;28;20077;-77
2023/10/07 06:51:11;;;;;;;12.10;5.75;;;10.00;99.90;;;;;;6223434;28;20050;-77
2023/10/07 06:54:14;;;;;;;6.95;4.63;;;10.20;99.90;;;;;;6223620;28;20049;-76
2023/10/07 06:57:17;;;;;;;10.38;5.00;;;10.40;99.90;;;;;;6238113;28;20056;-77
2023/10/07 07:00:25;;;;;;;9.07;5.07;;;10.70;99.90;;;;;;6247463;28;20045;-77
2023/10/07 07:03:28;;;;;;;;;;;11.10;99.90;;;;;;6247604;28;20068;-76
2023/10/07 07:06:36;;;;;;;8.15;4.45;;;11.30;99.90;;;;;;6224205;28;19921;-76
2023/10/07 07:09:51;;;;;;;9.32;4.72;;;11.60;99.90;;;;;;6223364;28;20049;-77
2023/10/07 07:12:58;;;;;;;8.20;5.13;;;11.80;99.90;;;;;;6222891;28;20040;-77
2023/10/07 07:16:06;;;;;;;9.10;5.32;;;12.10;99.90;;;;;;6222406;28;20046;-77
2023/10/07 07:19:11;;;;;;;5.97;4.10;;;12.40;99.90;;;;;;6222645;28;20046;-77
2023/10/07 07:22:12;;;;;;;6.70;5.38;;;12.70;99.90;;;;;;6222913;28;20093;-76
2023/10/07 07:25:22;;;;;;;6.85;4.45;;;13.10;99.90;;;;;;6222419;28;20091;-77
2023/10/07 07:28:24;;;;;;;8.93;4.28;;;13.40;99.90;;;;;;6222550;28;20499;-76
2023/10/07 07:31:33;;;;;;;12.65;6.78;;;13.60;99.90;;;;;;6222251;28;20056;-77
2023/10/07 07:34:36;;;;;;;8.40;5.68;;;13.80;99.90;;;;;;6222634;28;20056;-79
2023/10/07 07:37:40;;;;;;;5.38;3.97;;;13.80;99.90;;;;;;6221902;28;20530;-77
2023/10/07 07:40:43;;;;;;;6.95;4.05;;;13.80;99.90;;;;;;6222243;28;20053;-76
2023/10/07 07:43:45;;;;;;;12.65;4.35;;;14.00;99.90;;;;;;6188459;28;20045;-77
2023/10/07 07:46:52;;;;;;;6.70;4.07;;;14.20;99.90;;;;;;6229146;28;20054;-77
2023/10/07 07:49:55;;;;;;;10.32;4.32;;;14.50;99.90;;;;;;6223064;28;20065;-76
2023/10/07 07:53:02;;;;;;;8.43;4.03;;;14.70;99.90;;;;;;6241080;28;20044;-78
2023/10/07 07:56:08;;;;;;;7.03;3.78;;;15.00;99.90;;;;;;6244225;28;20056;-76
2023/10/07 07:59:14;;;;;;;5.88;3.70;;;15.30;99.90;;;;;;6224871;28;20057;-77
2023/10/07 08:02:16;;;;;;;7.90;3.97;;;15.60;99.90;;;;;;6223955;28;20049;-76
2023/10/07 08:05:19;;;;;;;8.15;4.13;;;15.90;99.90;;;;;;6230743;28;20153;-78
2023/10/07 08:08:24;;;;;;;6.22;3.67;;;16.20;99.90;;;;;;6239912;28;20046;-78
2023/10/07 08:11:26;;;;;;;8.20;5.13;;;15.90;99.90;;;;;;6245938;28;20679;-78
2023/10/07 08:14:27;;;;;;;5.03;3.70;;;15.80;99.90;;;;;;6230821;28;20426;-77
2023/10/07 08:17:29;;;;;;;3.38;2.95;;;15.60;99.90;;;;;;6233626;28;20050;-78
2023/10/07 08:20:38;;;;;;;5.32;3.45;;;15.40;99.90;;;;;;6224824;28;20089;-78
2023/10/07 08:23:44;;;;;;;7.97;4.88;;;15.30;99.90;;;;;;6235786;28;20394;-79
2023/10/07 08:26:48;;;;;;;5.78;4.35;;;15.50;99.90;;;;;;6240837;28;20088;-77
2023/10/07 08:29:53;;;;;;;5.65;3.88;;;16.20;99.90;;;;;;6223784;28;20065;-77
2023/10/07 08:32:55;;;;;;;4.68;3.15;;;16.90;99.90;;;;;;6233171;28;20041;-77
2023/10/07 08:35:58;;;;;;;7.35;3.92;;;17.70;99.90;;;;;;6222342;28;20041;-78
2023/10/07 08:39:04;;;;;;;7.22;3.92;;;17.90;99.90;;;;;;6244634;28;20051;-77
2023/10/07 08:42:12;;;;;;;7.95;3.72;;;17.90;99.60;;;;;;6233980;28;20215;-80
2023/10/07 08:45:16;;;;;;;5.35;3.30;;;17.80;98.90;;;;;;6237829;28;20049;-78
2023/10/07 08:48:18;;;;;;;7.65;4.78;;;17.70;98.60;;;;;;6233153;28;20045;-77
2023/10/07 08:51:23;;;;;;;5.72;3.33;;;17.50;98.40;;;;;;6237167;28;20050;-77
2023/10/07 08:54:31;;;;;;;7.43;5.25;;;17.30;98.20;;;;;;6248790;28;20048;-78
2023/10/07 08:57:34;;;;;;;6.40;3.63;;;17.20;98.00;;;;;;6225154;28;20052;-78
2023/10/07 09:00:39;;;;;;;5.78;3.75;;;17.00;97.90;;;;;;6239205;28;20045;-78
2023/10/07 09:03:41;;;;;;;6.20;2.53;;;16.90;97.60;;;;;;6223235;28;20069;-78
2023/10/07 09:06:50;;;;;;;8.55;3.17;;;16.90;97.30;;;;;;6232523;28;20124;-77
2023/10/07 09:09:53;;;;;;;6.55;2.85;;;17.00;97.10;;;;;;6227661;28;20100;-77
2023/10/07 09:13:04;;;;;;;7.13;3.35;;;17.10;96.70;;;;;;6226889;28;20041;-77
2023/10/07 09:16:07;;;;;;;9.80;4.28;;;17.20;96.30;;;;;;6246353;28;20053;-77
2023/10/07 09:19:12;;;;;;;6.82;2.95;;;17.50;96.30;;;;;;6226465;28;20049;-77
2023/10/07 09:22:17;;;;;;;9.00;4.32;;;18.00;95.60;;;;;;6224255;28;20077;-77
2023/10/07 09:25:31;;;;;;;7.95;3.40;;;18.50;94.50;;;;;;6230630;28;20570;-77
2023/10/07 09:28:38;;;;;;;6.32;3.88;;;19.10;93.50;;;;;;6223106;28;20089;-77
2023/10/07 09:31:41;;;;;;;5.50;3.43;;;19.70;92.80;;;;;;6231595;28;20042;-77
2023/10/07 09:34:44;;;;;;;13.23;10.80;;;20.20;91.60;;;;;;6239438;28;20342;-77
2023/10/07 09:37:48;;;;;;;6.68;4.15;;;20.40;90.80;;;;;;6231190;28;20533;-78
2023/10/07 09:41:11;;;;;;;6.60;4.50;;;20.30;89.70;;;;;;6238656;28;20042;-78
2023/10/07 09:44:26;;;;;;;8.65;4.47;;;20.20;89.50;;;;;;6223967;28;20050;-78
2023/10/07 09:47:28;;;;;;;8.32;5.43;;;20.00;88.60;;;;;;6223444;28;20120;-77
2023/10/07 09:50:33;;;;;;;7.88;5.63;;;19.90;87.80;;;;;;6228999;28;20153;-79
2023/10/07 09:53:49;;;;;;;8.65;6.50;;;19.70;87.60;;;;;;6223225;28;20049;-78
2023/10/07 09:57:19;;;;;;;12.20;5.90;;;19.70;87.10;;;;;;6228123;28;20050;-77
2023/10/07 10:00:40;;;;;;;5.72;3.53;;;19.70;86.80;;;;;;6232142;28;20057;-78
2023/10/07 10:03:59;;;;;;;6.30;3.65;;;19.70;87.00;;;;;;6227603;28;20075;-79
2023/10/07 10:07:21;;;;;;;6.25;3.28;;;19.80;86.30;;;;;;6230002;28;20046;-78
2023/10/07 10:10:31;;;;;;;5.60;3.60;;;19.80;86.50;;;;;;6254086;28;20057;-78
2023/10/07 10:16:51;;;;;;;13.63;6.72;;;19.90;85.90;;;;;;6252552;28;20498;-78
2023/10/07 10:20:09;;;;;;;7.00;4.30;;;19.90;85.70;;;;;;6251296;28;20165;-79
2023/10/07 10:23:18;;;;;;;;;;;20.00;84.90;;;;;;6235160;28;20065;-78
2023/10/07 10:26:22;;;;;;;;;;;20.00;85.60;;;;;;6236793;28;20058;-77
2023/10/07 10:29:26;;;;;;;9.38;5.63;;;20.00;83.10;;;;;;6236839;28;19925;-78
2023/10/07 10:32:31;;;;;;;8.25;4.85;;;19.90;84.50;;;;;;6226915;28;20053;-77
2023/10/07 10:35:33;;;;;;;3.55;3.10;;;19.90;83.80;;;;;;6245048;28;20048;-78
2023/10/07 10:38:37;;;;;;;9.15;3.38;;;19.90;83.80;;;;;;6219716;28;20057;-78
2023/10/07 10:41:40;;;;;;;8.55;4.10;;;19.90;83.80;;;;;;6226583;28;20133;-77
2023/10/07 10:44:46;;;;;;;8.27;4.30;;;20.00;83.40;;;;;;6227001;28;20042;-77
2023/10/07 10:47:50;;;;;;;7.00;3.30;;;19.90;83.00;;;;;;6227632;28;20049;-78
2023/10/07 10:50:55;;;;;;;5.80;3.58;;;19.90;82.90;;;;;;6236533;28;20157;-79
2023/10/07 10:53:57;;;;;;;7.82;3.22;;;19.80;82.50;;;;;;6248967;28;20132;-78
2023/10/07 10:57:07;;;;;;;6.18;3.25;;;19.80;82.30;;;;;;6233107;28;20056;-78
2023/10/07 11:00:19;;;;;;;5.70;4.55;;;19.70;82.30;;;;;;6236295;28;20065;-78
2023/10/07 11:03:21;;;;;;;4.43;2.97;;;19.80;81.40;;;;;;6231531;28;20037;-77
2023/10/07 11:06:23;;;;;;;5.13;2.60;;;19.90;80.80;;;;;;6231798;28;20053;-79
2023/10/07 11:09:33;;;;;;;4.43;2.60;;;19.90;80.30;;;;;;6226383;28;20050;-79
2023/10/07 11:12:37;;;;;;;4.82;2.60;;;19.90;79.50;;;;;;6229942;28;20046;-77
2023/10/07 11:15:41;;;;;;;5.80;2.67;;;20.00;79.50;;;;;;6225926;28;20042;-80
2023/10/07 11:18:45;;;;;;;5.95;2.70;;;20.10;79.30;;;;;;6235094;28;20054;-77
2023/10/07 11:21:49;;;;;;;7.00;3.17;;;20.10;79.00;;;;;;6234204;28;20053;-77
2023/10/07 11:24:51;;;;;;;4.20;2.75;;;20.10;78.70;;;;;;6245158;28;20038;-78
2023/10/07 11:27:55;;;;;;;4.53;3.33;;;20.10;78.40;;;;;;6234843;28;20060;-81
2023/10/07 11:30:57;;;;;;;5.55;2.72;;;20.00;78.50;;;;;;6223400;28;21386;-78
2023/10/07 11:33:59;;;;;;;5.22;3.05;;;20.10;78.50;;;;;;6229664;28;20045;-78
2023/10/07 11:37:09;;;;;;;7.03;3.38;;;20.10;78.30;;;;;;6249958;28;20403;-77
2023/10/07 11:40:12;;;;;;;4.53;2.25;;;20.20;77.70;;;;;;6236354;28;20041;-78
2023/10/07 11:43:15;;;;;;;6.25;2.40;;;20.20;77.30;;;;;;6246821;28;20065;-77
2023/10/07 11:46:19;;;;;;;6.13;3.10;;;20.30;76.80;;;;;;6229994;28;20054;-78
2023/10/07 11:49:22;;;;;;;4.32;2.70;;;20.40;76.10;;;;;;6236421;28;20124;-77
2023/10/07 11:52:27;;;;;;;5.47;2.20;;;20.50;75.80;;;;;;6228049;28;20068;-79
2023/10/07 11:55:31;;;;;;;5.60;2.22;;;20.60;75.40;;;;;;6221859;28;20061;-78
2023/10/07 11:58:34;;;;;;;6.05;3.35;;;20.80;74.40;;;;;;6235515;28;20056;-78
2023/10/07 12:01:36;;;;;;;3.38;2.25;;;20.90;73.80;;;;;;6228432;28;20515;-79
2023/10/07 12:04:41;;;;;;;6.13;3.22;;;21.10;73.80;;;;;;6225345;28;20391;-77
2023/10/07 12:07:47;;;;;;;5.32;2.50;;;21.30;72.90;;;;;;6241562;28;20487;-78
2023/10/07 12:10:50;;;;;;;7.13;2.28;;;21.40;72.40;;;;;;6225488;28;20050;-78
2023/10/07 12:13:53;;;;;;;6.97;2.25;;;21.30;72.30;;;;;;6220927;28;20049;-78
2023/10/07 12:16:55;;;;;;;4.93;2.38;;;21.30;72.10;;;;;;6226864;28;20060;-78
2023/10/07 12:19:56;;;;;;;4.20;2.08;;;21.40;72.30;;;;;;6236836;28;20045;-77
2023/10/07 12:22:58;;;;;;;6.82;2.63;;;21.60;72.10;;;;;;6230597;28;20057;-78
2023/10/07 12:26:01;;;;;;;6.72;2.60;;;21.70;71.60;;;;;;6248990;28;20045;-78
2023/10/07 12:29:04;;;;;;;4.55;2.90;;;21.80;71.10;;;;;;6230153;28;20503;-78
2023/10/07 12:32:06;;;;;;;6.03;2.92;;;21.90;70.70;;;;;;6234026;28;20038;-78
2023/10/07 12:35:09;;;;;;;8.20;2.55;;;22.00;70.20;;;;;;6245662;28;20042;-78
2023/10/07 12:38:10;;;;;;;4.47;2.13;;;22.00;69.70;;;;;;6242661;28;20052;-77
2023/10/07 12:41:14;;;;;;;6.90;3.42;;;21.90;69.80;;;;;;6245968;28;20120;-78
2023/10/07 12:44:17;;;;;;;4.28;2.95;;;21.90;69.90;;;;;;6246038;28;20043;-77
2023/10/07 12:47:21;;;;;;;4.55;2.47;;;22.10;69.80;;;;;;6230389;28;20056;-77
2023/10/07 12:50:28;;;;;;;4.07;2.72;;;22.20;69.30;;;;;;6224836;28;20133;-78
2023/10/07 12:53:30;;;;;;;3.65;2.13;;;22.30;68.90;;;;;;6230398;28;20045;-78
2023/10/07 12:56:33;;;;;;;5.03;2.97;;;22.40;68.50;;;;;;6248444;28;20042;-77
2023/10/07 12:59:37;;;;;;;3.28;2.20;;;22.50;68.20;;;;;;6228313;28;20148;-77
2023/10/07 13:02:39;;;;;;;3.30;1.83;;;22.70;67.60;;;;;;6231974;28;20057;-78
2023/10/07 13:05:45;;;;;;;3.03;2.40;;;23.00;66.70;;;;;;6230986;28;20503;-77
2023/10/07 13:08:47;;;;;;;3.95;2.20;;;23.30;66.00;;;;;;6208935;28;20050;-78
2023/10/07 13:11:49;;;;;;;6.45;2.67;;;23.60;65.00;;;;;;6231070;28;20041;-77
2023/10/07 13:14:52;;;;;;;8.82;3.45;;;23.80;64.50;;;;;;6232224;28;20050;-78
2023/10/07 13:17:54;;;;;;;4.05;2.00;;;24.20;63.90;;;;;;6225883;28;20058;-77
2023/10/07 13:20:55;;;;;;;4.55;1.73;;;24.50;62.90;;;;;;6223114;28;20046;-78
2023/10/07 13:23:57;;;;;;;4.85;2.92;;;24.80;62.10;;;;;;6244753;28;20041;-78
2023/10/07 13:27:02;;;;;;;4.25;2.20;;;25.20;61.60;;;;;;6256814;28;20053;-78
2023/10/07 13:30:06;;;;;;;4.15;2.28;;;25.50;60.90;;;;;;6237320;28;20046;-77
2023/10/07 13:33:08;;;;;;;7.13;2.25;;;25.40;59.80;;;;;;6231024;28;20776;-77
2023/10/07 13:36:10;;;;;;;4.30;2.25;;;25.10;59.60;;;;;;6230479;28;20121;-78
2023/10/07 13:39:16;;;;;;;6.32;2.58;;;24.70;59.50;;;;;;6230871;28;20053;-77
2023/10/07 13:42:18;;;;;;;3.92;2.17;;;24.30;60.20;;;;;;6251026;28;20049;-77
2023/10/07 13:45:23;;;;;;;5.38;2.42;;;23.90;60.50;;;;;;6246561;28;20046;-77
2023/10/07 13:48:25;;;;;;;5.32;2.78;;;23.70;60.90;;;;;;6252653;28;20132;-78
2023/10/07 13:51:31;;;;;;;3.22;2.00;;;23.70;60.90;;;;;;6255305;28;20045;-77
2023/10/07 13:54:46;;;;;;;4.05;2.53;;;23.90;60.90;;;;;;6255061;28;20363;-78
2023/10/07 13:57:53;;;;;;;3.72;1.90;;;24.10;60.40;;;;;;6223644;28;20049;-77
2023/10/07 14:00:57;;;;;;;3.80;2.28;;;24.30;60.50;;;;;;6230212;28;20046;-78
2023/10/07 14:03:58;;;;;;;3.38;1.88;;;24.50;59.90;;;;;;6230899;28;20049;-78
2023/10/07 14:07:05;;;;;;;4.65;2.10;;;24.60;59.40;;;;;;6229939;28;20057;-77
2023/10/07 14:10:09;;;;;;;6.63;2.58;;;24.80;59.50;;;;;;6241754;28;20053;-78
2023/10/07 14:13:12;;;;;;;6.50;2.63;;;24.90;58.90;;;;;;6234580;28;20042;-77
2023/10/07 14:16:17;;;;;;;2.70;1.30;;;25.10;59.30;;;;;;6226384;28;20121;-77
2023/10/07 14:19:19;;;;;;;4.50;1.90;;;25.40;58.80;;;;;;6228241;28;20637;-76
2023/10/07 14:22:20;;;;;;;3.92;2.03;;;25.50;58.50;;;;;;6224330;28;20049;-77
2023/10/07 14:25:24;;;;;;;3.58;2.72;;;25.60;58.50;;;;;;6228418;28;20052;-77
2023/10/07 14:28:26;;;;;;;5.18;2.35;;;25.70;58.30;;;;;;6231906;28;20058;-78
2023/10/07 14:31:29;;;;;;;6.68;2.85;;;25.70;58.30;;;;;;6232650;28;20049;-77
2023/10/07 14:34:31;;;;;;;31.15;21.52;;;25.70;57.50;;;;;;6249366;28;20049;-77
2023/10/07 14:37:34;;;;;;;17.42;13.45;;;25.50;57.10;;;;;;6244083;28;20494;-78
2023/10/07 14:40:37;;;;;;;21.85;15.25;;;25.30;57.20;;;;;;6254721;28;20049;-78
2023/10/07 14:43:39;;;;;;;15.90;12.30;;;25.20;57.20;;;;;;6239548;28;20056;-78
2023/10/07 14:46:44;;;;;;;4.40;3.15;;;25.00;56.90;;;;;;6239141;28;20066;-80
2023/10/07 14:49:46;;;;;;;16.90;12.30;;;24.80;57.00;;;;;;6229125;28;20097;-78
2023/10/07 14:52:48;;;;;;;7.72;3.20;;;24.80;57.10;;;;;;6223013;28;20426;-78
2023/10/07 14:55:49;;;;;;;10.05;2.88;;;24.70;57.20;;;;;;6222309;28;20045;-78
2023/10/07 14:58:52;;;;;;;5.03;2.05;;;24.60;56.70;;;;;;6251922;28;20064;-78
2023/10/07 15:01:56;;;;;;;4.38;1.95;;;24.50;56.70;;;;;;6254175;28;20052;-78
2023/10/07 15:05:00;;;;;;;4.55;1.80;;;24.20;56.90;;;;;;6252616;28;20041;-77
2023/10/07 15:08:02;;;;;;;7.07;2.17;;;24.00;57.40;;;;;;6228023;28;20120;-79
2023/10/07 15:11:04;;;;;;;3.78;2.63;;;23.70;57.80;;;;;;6229414;28;20060;-78
2023/10/07 15:14:06;;;;;;;4.18;2.67;;;23.50;58.00;;;;;;6225912;28;20627;-79
2023/10/07 15:17:10;;;;;;;6.13;2.78;;;23.20;58.50;;;;;;6226958;28;20064;-78
2023/10/07 15:20:15;;;;;;;3.17;1.98;;;23.00;58.90;;;;;;6225413;28;20046;-78
2023/10/07 15:23:17;;;;;;;3.85;2.10;;;22.80;59.30;;;;;;6222939;28;20058;-78
2023/10/07 15:26:19;;;;;;;5.13;2.13;;;22.60;59.20;;;;;;6230229;28;20100;-78
2023/10/07 15:29:21;;;;;;;3.22;2.05;;;22.40;59.30;;;;;;6225008;28;20046;-78
2023/10/07 15:32:24;;;;;;;5.80;1.98;;;22.30;59.50;;;;;;6246029;28;20462;-78
2023/10/07 15:35:27;;;;;;;4.03;2.35;;;22.10;59.50;;;;;;6250222;28;20049;-78
2023/10/07 15:38:29;;;;;;;5.72;2.35;;;22.00;59.60;;;;;;6243579;28;20064;-78
2023/10/07 15:41:30;;;;;;;3.78;1.80;;;21.90;59.70;;;;;;6250066;28;20160;-78
2023/10/07 15:44:32;;;;;;;5.90;2.47;;;21.80;59.90;;;;;;6248694;28;20049;-78
2023/10/07 15:47:36;;;;;;;4.00;2.53;;;21.70;60.10;;;;;;6236258;28;20056;-78
2023/10/07 15:50:38;;;;;;;7.10;2.33;;;21.50;60.30;;;;;;6248345;28;20045;-78
2023/10/07 15:53:41;;;;;;;4.18;1.92;;;21.40;60.60;;;;;;6229163;28;20045;-78
2023/10/07 15:56:43;;;;;;;4.35;2.35;;;21.40;60.90;;;;;;6225507;28;20045;-78
2023/10/07 15:59:44;;;;;;;5.03;3.05;;;21.30;61.20;;;;;;6233000;28;20047;-77
2023/10/07 16:02:48;;;;;;;4.15;1.63;;;21.20;61.50;;;;;;6233918;28;20054;-79
2023/10/07 16:05:50;;;;;;;2.78;1.98;;;21.10;61.80;;;;;;6233741;28;20045;-79
2023/10/07 16:08:53;;;;;;;4.43;2.55;;;21.00;62.10;;;;;;6251215;28;20080;-79